Time;durP1;ratioP1;P1;durP2;ratioP2;P2;SDS_P1;SDS_P2;PMS_P1;PMS_P2;Temp;Humidity;BMP_temperature;BMP_pressure;BME280_temperature;BME280_humidity;BME280_pressure;Samples;Min_cycle;Max_cycle;Signal;HPM_P1;HPM_P2
2022/07/02 00:02:19;;;;;;;0.30;0.30;;;;;;;20.13;64.19;97238.66;10392713;28;20044;-24
2022/07/02 00:07:20;;;;;;;0.68;0.38;;;;;;;20.19;63.68;97243.75;10388934;28;20288;-22
2022/07/02 00:12:21;;;;;;;0.90;0.52;;;;;;;20.41;62.13;97241.25;10385544;28;20048;-23
2022/07/02 00:17:22;;;;;;;0.55;0.20;;;;;;;20.49;62.32;97235.31;10389371;28;20029;-23
2022/07/02 00:22:22;;;;;;;0.38;0.30;;;;;;;20.38;63.02;97237.84;10386728;28;20458;-22
2022/07/02 00:27:26;;;;;;;0.25;0.13;;;;;;;20.27;63.35;97227.66;10389226;28;20039;-22
2022/07/02 00:32:29;;;;;;;0.60;0.15;;;;;;;20.20;63.78;97228.53;10388323;28;20065;-22
2022/07/02 00:37:30;;;;;;;0.10;0.10;;;;;;;20.19;63.87;97228.50;10399697;28;20273;-22
2022/07/02 00:42:31;;;;;;;0.10;0.10;;;;;;;20.15;64.00;97226.78;10390524;28;20037;-24
2022/07/02 00:47:32;;;;;;;0.25;0.10;;;;;;;20.16;64.01;97233.56;10391761;28;20047;-23
2022/07/02 00:52:32;;;;;;;0.17;0.15;;;;;;;20.12;64.14;97230.22;10386786;28;20025;-22
2022/07/02 00:57:33;;;;;;;0.17;0.10;;;;;;;20.13;64.23;97231.03;10388033;28;20033;-23
2022/07/02 01:02:35;;;;;;;0.10;0.10;;;;;;;20.11;64.04;97220.84;10386890;28;20315;-23
2022/07/02 01:07:37;;;;;;;1.40;0.50;;;;;;;20.35;61.91;97225.97;10393151;28;20017;-23
2022/07/02 01:12:41;;;;;;;2.40;0.52;;;;;;;20.47;61.43;97221.72;10388503;28;20104;-22
2022/07/02 01:17:42;;;;;;;1.60;0.28;;;;;;;20.38;62.79;97217.50;10393452;28;20377;-23
2022/07/02 01:22:44;;;;;;;0.20;0.20;;;;;;;20.29;63.19;97212.41;10397069;28;20030;-23
2022/07/02 01:27:45;;;;;;;0.10;0.10;;;;;;;20.22;63.62;97213.25;10400688;28;20669;-23
2022/07/02 01:32:45;;;;;;;0.20;0.20;;;;;;;20.13;63.87;97206.47;10394778;28;20095;-23
2022/07/02 01:37:45;;;;;;;0.13;0.13;;;;;;;20.19;63.79;97225.97;10401048;28;20843;-23
2022/07/02 01:42:46;;;;;;;0.77;0.40;;;;;;;20.16;63.83;97215.78;10393720;28;20125;-24
2022/07/02 01:47:46;;;;;;;0.10;0.10;;;;;;;20.14;63.92;97214.94;10397034;28;20037;-24
2022/07/02 01:52:47;;;;;;;0.20;0.17;;;;;;;20.14;63.90;97225.97;10392878;28;20613;-23
2022/07/02 01:57:48;;;;;;;0.30;0.10;;;;;;;20.13;64.03;97225.94;10392709;28;20082;-24
2022/07/02 02:02:48;;;;;;;0.70;0.47;;;;;;;20.30;62.24;97216.66;10391582;28;20062;-21
2022/07/02 02:07:49;;;;;;;1.25;0.70;;;;;;;20.40;61.26;97216.66;10394453;28;20034;-22
2022/07/02 02:12:49;;;;;;;0.20;0.20;;;;;;;20.44;62.41;97226.84;10398727;28;20041;-24
2022/07/02 02:17:49;;;;;;;0.30;0.20;;;;;;;20.31;62.78;97228.50;10391713;28;20103;-24
2022/07/02 02:22:50;;;;;;;0.40;0.30;;;;;;;20.26;63.24;97232.75;10390350;28;20153;-23
2022/07/02 02:27:50;;;;;;;0.20;0.20;;;;;;;20.20;63.55;97225.13;10397075;28;20292;-21
2022/07/02 02:32:51;;;;;;;1.90;0.30;;;;;;;20.19;63.72;97224.25;10390542;28;20287;-22
2022/07/02 02:37:51;;;;;;;0.30;0.30;;;;;;;20.13;63.70;97215.78;10397985;28;20350;-22
2022/07/02 02:42:52;;;;;;;1.30;0.10;;;;;;;20.13;63.92;97220.88;10391769;28;20035;-22
2022/07/02 02:47:52;;;;;;;0.27;0.20;;;;;;;20.12;64.00;97219.16;10394548;28;20295;-23
2022/07/02 02:52:52;;;;;;;0.20;0.20;;;;;;;20.11;64.11;97220.03;10397951;28;20052;-22
2022/07/02 02:57:53;;;;;;;0.37;0.30;;;;;;;20.17;63.34;97213.25;10391673;28;20079;-24
2022/07/02 03:02:53;;;;;;;0.93;0.30;;;;;;;20.38;61.49;97209.03;10391684;28;20539;-24
2022/07/02 03:07:53;;;;;;;0.50;0.20;;;;;;;20.45;61.89;97210.72;10394460;28;20576;-24
2022/07/02 03:12:54;;;;;;;0.40;0.20;;;;;;;20.33;62.53;97206.50;10389761;28;20040;-24
2022/07/02 03:17:54;;;;;;;0.13;0.13;;;;;;;20.24;63.04;97216.63;10392567;28;20099;-22
2022/07/02 03:22:54;;;;;;;0.10;0.10;;;;;;;20.20;63.29;97214.94;10388225;28;20297;-23
2022/07/02 03:27:55;;;;;;;0.20;0.20;;;;;;;20.16;63.60;97225.94;10397529;28;20033;-23
2022/07/02 03:32:55;;;;;;;0.20;0.20;;;;;;;20.15;63.86;97231.88;10389173;28;20060;-23
2022/07/02 03:37:56;;;;;;;0.20;0.20;;;;;;;20.13;63.81;97234.44;10395440;28;20037;-23
2022/07/02 03:42:56;;;;;;;0.20;0.20;;;;;;;20.12;63.87;97231.88;10386463;28;20571;-23
2022/07/02 03:47:57;;;;;;;0.10;0.10;;;;;;;20.11;63.91;97235.28;10395849;28;20556;-22
2022/07/02 03:52:57;;;;;;;0.20;0.20;;;;;;;20.14;63.69;97235.28;10393009;28;20083;-22
2022/07/02 03:57:58;;;;;;;1.40;0.47;;;;;;;20.30;60.97;97229.34;10387381;28;20033;-23
2022/07/02 04:02:58;;;;;;;0.55;0.32;;;;;;;20.45;60.60;97236.16;10388915;28;20488;-24
2022/07/02 04:07:59;;;;;;;1.50;0.20;;;;;;;20.38;62.14;97240.38;10386518;28;20072;-24
2022/07/02 04:12:59;;;;;;;0.33;0.33;;;;;;;20.27;62.78;97239.53;10386979;28;20713;-23
2022/07/02 04:18:00;;;;;;;1.17;0.40;;;;;;;20.21;63.22;97236.97;10388158;28;20042;-22
2022/07/02 04:23:00;;;;;;;0.17;0.17;;;;;;;20.18;63.41;97242.06;10381396;28;20025;-23
2022/07/02 04:28:01;;;;;;;0.20;0.20;;;;;;;20.15;63.68;97239.50;10393811;28;20021;-23
2022/07/02 04:33:01;;;;;;;0.20;0.20;;;;;;;20.14;63.66;97235.28;10388491;28;20073;-23
2022/07/02 04:38:01;;;;;;;1.63;0.30;;;;;;;19.58;65.01;97242.69;10381411;28;20030;-24
2022/07/02 04:43:02;;;;;;;1.53;1.07;;;;;;;18.32;65.59;97235.94;10391111;28;20033;-23
2022/07/02 04:48:02;;;;;;;3.80;1.27;;;;;;;18.05;65.94;97238.16;10397551;28;20291;-24
2022/07/02 04:53:03;;;;;;;2.60;1.50;;;;;;;17.98;65.77;97249.09;10398301;28;20062;-25
2022/07/02 04:58:03;;;;;;;6.83;1.93;;;;;;;17.86;66.38;97243.88;10395353;28;20025;-22
2022/07/02 05:03:03;;;;;;;2.17;1.13;;;;;;;17.81;66.15;97230.31;10397242;28;20796;-24
2022/07/02 05:08:04;;;;;;;1.77;0.93;;;;;;;17.85;66.62;97239.66;10395715;28;20476;-23
2022/07/02 05:13:04;;;;;;;4.50;1.13;;;;;;;18.70;63.87;97242.16;10403302;28;20533;-23
2022/07/02 05:18:05;;;;;;;1.40;1.17;;;;;;;19.41;61.42;97243.50;10397727;28;20037;-25
2022/07/02 05:23:05;;;;;;;2.23;0.73;;;;;;;19.54;61.22;97232.53;10396335;28;20033;-24
2022/07/02 05:28:05;;;;;;;3.03;1.00;;;;;;;19.60;60.83;97230.03;10396769;28;20022;-24
2022/07/02 05:33:06;;;;;;;7.50;1.40;;;;;;;19.67;60.59;97222.41;10395724;28;20291;-23
2022/07/02 05:38:06;;;;;;;6.32;1.30;;;;;;;19.71;60.66;97224.13;10393824;28;20315;-23
2022/07/02 05:43:07;;;;;;;11.27;1.43;;;;;;;19.66;61.70;97230.06;10395014;28;20113;-22
2022/07/02 05:48:07;;;;;;;7.67;1.23;;;;;;;19.53;61.45;97207.97;10395411;28;20295;-22
2022/07/02 05:53:08;;;;;;;2.72;0.75;;;;;;;19.78;61.10;97230.06;10389628;28;20303;-25
2022/07/02 05:58:08;;;;;;;1.23;0.75;;;;;;;19.82;60.95;97236.84;10392643;28;20037;-24
2022/07/02 06:03:09;;;;;;;1.88;0.60;;;;;;;19.67;61.35;97217.34;10396983;28;20484;-24
2022/07/02 06:08:09;;;;;;;0.90;0.60;;;;;;;19.83;60.57;97229.25;10396057;28;20604;-22
2022/07/02 06:13:09;;;;;;;1.03;0.70;;;;;;;19.76;60.76;97231.78;10385944;28;20041;-24
2022/07/02 06:18:12;;;;;;;2.95;0.60;;;;;;;19.78;60.81;97207.22;10396397;28;20065;-25
2022/07/02 06:23:12;;;;;;;3.70;0.55;;;;;;;19.82;59.84;97207.22;10394770;28;20045;-24
2022/07/02 06:28:13;;;;;;;1.17;0.33;;;;;;;19.84;60.42;97197.06;10392775;28;20041;-24
2022/07/02 06:33:13;;;;;;;2.38;0.60;;;;;;;19.71;61.59;97195.31;10391788;28;20309;-24
2022/07/02 06:38:13;;;;;;;2.60;0.50;;;;;;;19.76;61.87;97186.88;10389551;28;20040;-23
2022/07/02 06:43:14;;;;;;;3.80;0.70;;;;;;;19.78;62.22;97194.50;10386659;28;20065;-23
2022/07/02 06:48:14;;;;;;;1.67;0.50;;;;;;;19.85;60.50;97193.69;10398575;28;20283;-24
2022/07/02 06:53:15;;;;;;;0.70;0.50;;;;;;;19.98;60.16;97185.22;10398962;28;20036;-23
2022/07/02 06:58:15;;;;;;;1.08;0.50;;;;;;;20.03;60.03;97175.91;10391923;28;20049;-23
2022/07/02 07:03:16;;;;;;;3.53;0.60;;;;;;;19.99;61.71;97169.13;10399536;28;20034;-22
2022/07/02 07:08:16;;;;;;;2.03;0.40;;;;;;;19.93;60.95;97151.34;10394809;28;20026;-23
2022/07/02 07:13:16;;;;;;;0.90;0.50;;;;;;;19.94;61.56;97156.41;10387995;28;20041;-23
2022/07/02 07:18:17;;;;;;;4.80;0.77;;;;;;;19.93;61.94;97158.97;10396828;28;20044;-23
2022/07/02 07:23:17;;;;;;;0.53;0.30;;;;;;;19.90;61.92;97159.81;10393960;28;20040;-23
2022/07/02 07:28:17;;;;;;;0.93;0.60;;;;;;;19.93;61.63;97153.88;10389972;28;20067;-24
2022/07/02 07:33:18;;;;;;;0.80;0.43;;;;;;;19.93;61.88;97148.81;10383985;28;20419;-23
2022/07/02 07:38:18;;;;;;;0.40;0.20;;;;;;;19.90;62.27;97149.63;10397935;28;20038;-22
2022/07/02 07:43:18;;;;;;;0.20;0.20;;;;;;;19.92;61.88;97142.03;10391848;28;20484;-24
2022/07/02 07:48:19;;;;;;;0.60;0.40;;;;;;;20.07;60.50;97148.00;10398876;28;20522;-23
2022/07/02 07:53:19;;;;;;;2.27;0.70;;;;;;;20.16;60.59;97142.03;10392421;28;20037;-23
2022/07/02 07:58:20;;;;;;;0.53;0.30;;;;;;;20.13;61.20;97145.47;10390099;28;20037;-25
2022/07/02 08:03:20;;;;;;;0.60;0.60;;;;;;;20.04;61.39;97132.75;10395832;28;20037;-23
2022/07/02 08:08:22;;;;;;;1.00;0.35;;;;;;;20.02;61.80;97128.47;10392833;28;20021;-25
2022/07/02 08:13:22;;;;;;;0.93;0.50;;;;;;;19.96;62.36;97125.91;10388142;28;20108;-23
2022/07/02 08:18:22;;;;;;;0.30;0.30;;;;;;;19.96;62.36;97124.25;10392561;28;20034;-23
2022/07/02 08:23:23;;;;;;;2.43;0.40;;;;;;;19.89;62.42;97116.59;10392367;28;20774;-22
2022/07/02 08:28:23;;;;;;;0.50;0.30;;;;;;;19.95;62.21;97111.53;10392078;28;20463;-23
2022/07/02 08:33:24;;;;;;;1.65;0.63;;;;;;;19.98;62.04;97116.59;10392122;28;20378;-25
2022/07/02 08:38:25;;;;;;;0.52;0.40;;;;;;;19.92;62.39;97096.28;10399801;28;20042;-26
2022/07/02 08:43:27;;;;;;;0.43;0.28;;;;;;;20.05;61.34;97124.28;10388603;28;20080;-24
2022/07/02 08:48:28;;;;;;;1.08;0.50;;;;;;;20.18;60.84;97112.41;10400808;28;20040;-25
2022/07/02 08:53:28;;;;;;;2.08;0.40;;;;;;;20.18;61.37;97113.25;10397913;28;20068;-23
2022/07/02 08:58:29;;;;;;;0.67;0.30;;;;;;;20.10;61.67;97127.66;10394809;28;20129;-25
2022/07/02 09:03:31;;;;;;;0.90;0.43;;;;;;;20.05;62.10;97108.16;10404173;28;20295;-25
2022/07/02 09:08:33;;;;;;;0.90;0.28;;;;;;;20.01;62.38;97114.06;10396945;28;20026;-24
2022/07/02 09:13:34;;;;;;;0.38;0.38;;;;;;;19.98;62.31;97101.34;10385180;28;20040;-22
2022/07/02 09:18:34;;;;;;;0.68;0.40;;;;;;;19.99;62.53;97103.91;10399393;28;20038;-23
2022/07/02 09:23:34;;;;;;;0.50;0.40;;;;;;;19.98;62.51;97106.44;10396682;28;20091;-23
2022/07/02 09:28:35;;;;;;;1.07;0.40;;;;;;;19.97;62.69;97087.81;10396225;28;20026;-22
2022/07/02 09:33:39;;;;;;;0.70;0.40;;;;;;;19.99;62.42;97086.09;10391963;28;20088;-22
2022/07/02 09:38:50;;;;;;;0.98;0.50;;;;;;;20.06;61.51;97084.44;10390340;28;20029;-24
2022/07/02 09:44:00;;;;;;;0.50;0.43;;;;;;;20.20;61.15;97091.22;10392195;28;20037;-23
2022/07/02 09:49:07;;;;;;;0.57;0.50;;;;;;;20.20;61.32;97092.91;10398707;28;20431;-22
2022/07/02 09:54:08;;;;;;;2.58;0.63;;;;;;;20.11;62.05;97103.09;10386787;28;20026;-23
2022/07/02 09:59:15;;;;;;;7.32;0.60;;;;;;;20.07;62.32;97109.00;10394246;28;20029;-24
2022/07/02 10:04:15;;;;;;;6.40;0.47;;;;;;;20.07;62.59;97106.47;10397213;28;20040;-23
2022/07/02 10:09:17;;;;;;;2.28;0.50;;;;;;;20.02;62.73;97097.97;10388547;28;20511;-23
2022/07/02 10:14:21;;;;;;;5.40;0.60;;;;;;;19.98;62.97;97081.00;10391360;28;20494;-23
2022/07/02 10:19:22;;;;;;;11.55;1.02;;;;;;;19.98;62.70;97068.31;10394069;28;20064;-23
2022/07/02 10:24:23;;;;;;;2.58;0.80;;;;;;;20.07;62.18;97081.03;10395172;28;20104;-23
2022/07/02 10:29:24;;;;;;;1.70;0.50;;;;;;;20.22;61.46;97086.97;10394904;28;20051;-23
2022/07/02 10:34:51;;;;;;;0.40;0.40;;;;;;;20.28;61.37;97083.56;10391655;28;20082;-24
2022/07/02 10:39:59;;;;;;;3.22;0.40;;;;;;;20.16;62.10;97071.72;10386036;28;20072;-24
2022/07/02 10:45:08;;;;;;;2.55;0.40;;;;;;;20.10;62.27;97070.88;10391535;28;20454;-24
2022/07/02 10:50:09;;;;;;;2.38;0.60;;;;;;;20.05;62.63;97068.34;10389531;28;20029;-24
2022/07/02 10:55:09;;;;;;;1.52;0.30;;;;;;;20.04;62.75;97053.06;10395178;28;20103;-24
2022/07/02 11:00:15;;;;;;;2.97;0.70;;;;;;;20.02;62.70;97057.31;10392451;28;20483;-24
2022/07/02 11:05:15;;;;;;;2.80;0.60;;;;;;;20.02;62.66;97052.22;10393759;28;20041;-24
2022/07/02 11:10:24;;;;;;;4.53;0.60;;;;;;;20.01;62.96;97038.66;10389385;28;20033;-25
2022/07/02 11:15:34;;;;;;;1.25;0.50;;;;;;;20.02;62.70;97037.81;10391862;28;20029;-24
2022/07/02 11:20:35;;;;;;;0.70;0.43;;;;;;;20.14;61.93;97026.81;10393170;28;20048;-23
2022/07/02 11:25:36;;;;;;;2.53;0.50;;;;;;;20.25;61.72;97022.56;10391882;28;20033;-23
2022/07/02 11:30:36;;;;;;;0.90;0.60;;;;;;;20.28;62.12;97025.91;10392957;28;20374;-24
2022/07/02 11:35:37;;;;;;;0.20;0.20;;;;;;;20.17;62.22;97021.75;10392157;28;20037;-24
2022/07/02 11:40:39;;;;;;;1.33;0.50;;;;;;;20.12;62.35;97005.63;10390996;28;20296;-22
2022/07/02 11:45:47;;;;;;;0.80;0.60;;;;;;;20.09;62.47;96992.94;10394506;28;20292;-24
2022/07/02 11:50:58;;;;;;;0.32;0.30;;;;;;;20.06;62.78;96987.84;10389591;28;20029;-25
2022/07/02 11:56:08;;;;;;;0.40;0.22;;;;;;;20.02;62.65;96986.13;10384058;28;20431;-26
2022/07/02 12:01:32;;;;;;;2.47;0.77;;;;;;;20.04;62.80;96987.88;10395652;28;20060;-21
2022/07/02 12:06:35;;;;;;;1.00;0.45;;;;;;;20.04;62.98;96979.34;10376495;28;20100;-23
2022/07/02 12:11:41;;;;;;;5.20;0.60;;;;;;;20.05;62.87;96983.63;10392478;28;20029;-24
2022/07/02 12:16:44;;;;;;;0.88;0.40;;;;;;;20.15;62.04;96970.88;10387225;28;20033;-23
2022/07/02 12:21:49;;;;;;;1.95;0.40;;;;;;;20.28;61.57;96962.34;10388533;28;20045;-23
2022/07/02 12:26:54;;;;;;;0.98;0.75;;;;;;;20.32;61.73;96966.59;10393473;28;20045;-24
2022/07/02 12:32:04;;;;;;;1.52;0.60;;;;;;;20.19;62.02;96959.03;10388974;28;20029;-23
2022/07/02 12:37:04;;;;;;;1.25;0.60;;;;;;;20.13;62.28;96953.94;10390009;28;20037;-22
2022/07/02 12:42:13;;;;;;;0.95;0.50;;;;;;;20.09;62.91;96949.72;10386045;28;20073;-22
2022/07/02 12:47:21;;;;;;;0.55;0.40;;;;;;;20.08;62.73;96945.50;10392943;28;20192;-23
2022/07/02 12:52:22;;;;;;;3.50;0.73;;;;;;;20.04;62.97;96948.84;10389811;28;20033;-23
2022/07/02 12:57:23;;;;;;;6.18;0.50;;;;;;;20.07;63.07;96933.63;10388961;28;20087;-23
2022/07/02 13:02:28;;;;;;;1.08;0.63;;;;;;;20.05;63.04;96922.63;10385856;28;20461;-22
2022/07/02 13:07:28;;;;;;;0.70;0.30;;;;;;;20.06;62.92;96931.94;10388595;28;20034;-23
2022/07/02 13:12:28;;;;;;;0.57;0.40;;;;;;;20.16;62.50;96923.41;10389387;28;20040;-25
2022/07/02 13:17:29;;;;;;;0.35;0.35;;;;;;;20.31;62.17;96915.72;10391258;28;20037;-24
2022/07/02 13:22:29;;;;;;;0.97;0.47;;;;;;;20.32;62.14;96914.88;10397208;28;20040;-24
2022/07/02 13:27:30;;;;;;;1.63;0.57;;;;;;;20.14;62.42;96895.47;10399648;28;20044;-24
2022/07/02 13:32:30;;;;;;;1.33;0.47;;;;;;;20.16;62.48;96898.00;10394935;28;20216;-23
2022/07/02 13:37:30;;;;;;;1.63;0.55;;;;;;;20.12;62.87;96894.66;10398745;28;20080;-25
2022/07/02 13:42:31;;;;;;;1.43;0.50;;;;;;;20.11;62.68;96889.56;10396617;28;20025;-23
2022/07/02 13:47:32;;;;;;;13.60;1.08;;;;;;;20.03;63.86;96891.25;10393407;28;20293;-23
2022/07/02 13:52:32;;;;;;;3.88;0.95;;;;;;;20.08;63.45;96882.78;10396946;28;20036;-25
2022/07/02 13:57:33;;;;;;;6.03;0.50;;;;;;;20.08;63.04;96884.50;10396512;28;20040;-24
2022/07/02 14:02:33;;;;;;;3.45;0.50;;;;;;;20.08;63.17;96889.59;10394243;28;20034;-23
2022/07/02 14:07:34;;;;;;;1.48;0.50;;;;;;;20.21;63.12;96886.13;10395894;28;20558;-22
2022/07/02 14:12:34;;;;;;;3.07;0.60;;;;;;;20.33;62.78;96886.09;10395450;28;20044;-24
2022/07/02 14:17:35;;;;;;;0.60;0.27;;;;;;;20.36;62.64;96883.53;10394712;28;20608;-22
2022/07/02 14:22:35;;;;;;;1.50;0.50;;;;;;;20.23;62.81;96881.88;10393505;28;20652;-24
2022/07/02 14:27:35;;;;;;;2.03;1.30;;;;;;;20.18;62.80;96876.81;10395725;28;20026;-22
2022/07/02 14:32:36;;;;;;;0.40;0.20;;;;;;;20.15;63.06;96869.19;10392855;28;20292;-22
2022/07/02 14:37:36;;;;;;;1.53;0.40;;;;;;;20.14;63.17;96879.38;10392547;28;20038;-22
2022/07/02 14:42:37;;;;;;;1.47;0.50;;;;;;;20.13;63.31;96867.50;10393165;28;20036;-23
2022/07/02 14:47:37;;;;;;;0.52;0.40;;;;;;;20.12;62.99;96870.91;10395729;28;20025;-24
2022/07/02 14:52:38;;;;;;;1.10;0.47;;;;;;;20.08;63.19;96864.16;10389544;28;20476;-23
2022/07/02 14:57:39;;;;;;;1.73;0.50;;;;;;;20.10;63.19;96867.53;10391869;28;20036;-24
2022/07/02 15:02:39;;;;;;;1.33;0.30;;;;;;;20.23;63.36;96862.38;10391358;28;20481;-23
2022/07/02 15:07:40;;;;;;;0.60;0.43;;;;;;;20.38;63.23;96864.00;10393235;28;20045;-24
2022/07/02 15:12:41;;;;;;;0.90;0.30;;;;;;;20.36;62.59;96860.63;10392032;28;20651;-23
2022/07/02 15:17:42;;;;;;;0.80;0.40;;;;;;;20.26;63.14;96866.63;10392908;28;20045;-22
2022/07/02 15:22:47;;;;;;;0.60;0.40;;;;;;;20.21;63.12;96868.31;10390195;28;20041;-23
2022/07/02 15:27:50;;;;;;;0.20;0.20;;;;;;;20.16;63.17;96857.31;10392782;28;20034;-24
2022/07/02 15:32:51;;;;;;;0.88;0.40;;;;;;;20.15;63.16;96858.19;10389652;28;20037;-24
2022/07/02 15:37:54;;;;;;;1.67;0.55;;;;;;;20.13;63.35;96847.19;10389868;28;20029;-24
2022/07/02 15:42:56;;;;;;;0.30;0.25;;;;;;;20.13;63.23;96847.19;10391372;28;20034;-25
2022/07/02 15:47:58;;;;;;;0.95;0.90;;;;;;;20.13;63.39;96847.19;10388989;28;20037;-23
2022/07/02 15:53:03;;;;;;;0.40;0.40;;;;;;;20.12;63.28;96851.44;10390454;28;20451;-24
2022/07/02 15:58:09;;;;;;;0.75;0.20;;;;;;;20.29;63.81;96853.88;10387648;28;20049;-23
2022/07/02 16:03:12;;;;;;;0.40;0.40;;;;;;;20.41;63.58;96841.94;10386476;28;20057;-22
2022/07/02 16:08:13;;;;;;;0.50;0.20;;;;;;;20.38;62.88;96847.88;10383901;28;20026;-23
2022/07/02 16:13:14;;;;;;;0.88;0.30;;;;;;;20.25;63.23;96842.06;10390395;28;20240;-23
2022/07/02 16:18:15;;;;;;;0.30;0.30;;;;;;;20.21;63.23;96838.69;10390172;28;20034;-22
2022/07/02 16:23:16;;;;;;;0.63;0.40;;;;;;;20.16;63.32;96832.75;10394090;28;20037;-23
2022/07/02 16:28:16;;;;;;;0.40;0.38;;;;;;;20.14;63.65;96839.56;10384391;28;20097;-20
2022/07/02 16:33:20;;;;;;;6.57;0.50;;;;;;;20.12;64.46;96840.41;10386103;28;20542;-22
2022/07/02 16:38:23;;;;;;;2.65;0.30;;;;;;;20.14;63.77;96834.47;10391077;28;20066;-21
2022/07/02 16:43:34;;;;;;;0.75;0.38;;;;;;;20.14;63.98;96834.47;10386847;28;20466;-21
2022/07/02 16:48:43;;;;;;;0.77;0.50;;;;;;;20.38;64.84;96837.72;10385983;28;20029;-21
2022/07/02 16:53:44;;;;;;;0.82;0.40;;;;;;;20.45;63.34;96826.66;10403546;28;20375;-22
2022/07/02 16:58:46;;;;;;;1.42;0.65;;;;;;;20.32;63.53;96829.28;10393679;28;20038;-21
2022/07/02 17:03:47;;;;;;;0.50;0.40;;;;;;;20.15;63.37;96807.34;10397214;28;20045;-22
2022/07/02 17:08:48;;;;;;;0.98;0.50;;;;;;;20.18;63.46;96813.25;10394124;28;20030;-21
2022/07/02 17:13:48;;;;;;;0.60;0.37;;;;;;;20.17;63.55;96814.09;10390475;28;20033;-21
2022/07/02 17:18:49;;;;;;;1.90;0.93;;;;;;;20.16;63.54;96822.59;10397980;28;20033;-20
2022/07/02 17:23:49;;;;;;;1.07;0.90;;;;;;;20.17;63.43;96819.19;10399130;28;20290;-21
2022/07/02 17:28:50;;;;;;;0.37;0.30;;;;;;;20.15;63.69;96807.34;10394625;28;20300;-20
2022/07/02 17:33:50;;;;;;;1.10;0.40;;;;;;;20.14;63.35;96808.19;10394084;28;20034;-22
2022/07/02 17:38:51;;;;;;;1.23;0.40;;;;;;;20.19;64.30;96806.47;10396126;28;20431;-21
2022/07/02 17:43:52;;;;;;;1.27;0.60;;;;;;;20.34;64.98;96801.31;10394057;28;20037;-21
2022/07/02 17:48:52;;;;;;;0.45;0.43;;;;;;;20.46;63.41;96813.09;10396643;28;20025;-21
2022/07/02 17:53:53;;;;;;;0.30;0.30;;;;;;;20.34;64.20;96812.31;10395784;28;20025;-21
2022/07/02 17:58:53;;;;;;;0.63;0.53;;;;;;;20.26;63.89;96814.06;10390677;28;20391;-19
2022/07/02 18:03:54;;;;;;;0.43;0.43;;;;;;;20.23;63.73;96808.13;10393826;28;20276;-20
2022/07/02 18:08:56;;;;;;;0.50;0.40;;;;;;;20.18;63.77;96804.81;10392689;28;20554;-22
2022/07/02 18:13:56;;;;;;;0.55;0.40;;;;;;;20.18;63.68;96812.41;10387840;28;20592;-22
2022/07/02 18:18:57;;;;;;;0.40;0.40;;;;;;;20.17;63.59;96805.66;10394443;28;20110;-22
2022/07/02 18:23:57;;;;;;;0.60;0.40;;;;;;;20.16;63.75;96809.03;10394799;28;20029;-22
2022/07/02 18:28:57;;;;;;;0.40;0.40;;;;;;;20.14;63.66;96805.66;10398741;28;20088;-21
2022/07/02 18:33:58;;;;;;;1.47;0.50;;;;;;;20.20;64.96;96818.34;10391351;28;20475;-21
2022/07/02 18:38:59;;;;;;;0.70;0.47;;;;;;;20.43;65.27;96812.25;10388783;28;20296;-21
2022/07/02 18:43:59;;;;;;;0.40;0.30;;;;;;;20.49;63.80;96807.13;10393480;28;20079;-22
2022/07/02 18:49:00;;;;;;;0.20;0.15;;;;;;;20.37;63.99;96814.00;10392762;28;20029;-20
2022/07/02 18:54:00;;;;;;;1.08;0.40;;;;;;;20.29;64.03;96808.13;10388270;28;20029;-20
2022/07/02 18:59:02;;;;;;;0.43;0.40;;;;;;;20.22;63.79;96803.91;10389652;28;20388;-20
2022/07/02 19:04:03;;;;;;;0.40;0.40;;;;;;;20.20;63.72;96816.66;10392690;28;20026;-22
2022/07/02 19:09:04;;;;;;;0.45;0.30;;;;;;;20.18;63.66;96802.25;10392057;28;20445;-20
2022/07/02 19:14:05;;;;;;;0.22;0.22;;;;;;;20.18;63.72;96809.88;10390460;28;20471;-22
2022/07/02 19:19:05;;;;;;;1.90;0.50;;;;;;;20.18;63.62;96820.06;10390709;28;20079;-20
2022/07/02 19:24:07;;;;;;;0.20;0.20;;;;;;;20.17;63.75;96818.38;10391639;28;20068;-22
2022/07/02 19:34:27;;;;;;;0.50;0.50;;;;;;;20.44;65.76;96824.13;10387613;28;20022;-22
2022/07/02 19:39:28;;;;;;;0.37;0.37;;;;;;;20.49;63.51;96823.25;10392225;28;20028;-22
2022/07/02 19:44:28;;;;;;;0.57;0.20;;;;;;;20.36;63.97;96835.19;10389535;28;20029;-21
2022/07/02 19:49:28;;;;;;;0.60;0.30;;;;;;;20.29;63.86;96838.63;10390315;28;20380;-23
2022/07/02 19:54:29;;;;;;;0.67;0.40;;;;;;;20.25;63.84;96842.88;10392422;28;20411;-23
2022/07/02 19:59:29;;;;;;;0.30;0.20;;;;;;;20.16;63.76;96834.44;10386151;28;20438;-21
2022/07/02 20:04:29;;;;;;;0.30;0.30;;;;;;;20.19;63.56;96847.97;10391029;28;20281;-21
2022/07/02 20:09:30;;;;;;;0.65;0.40;;;;;;;20.19;63.73;96855.63;10392479;28;20028;-22
2022/07/02 20:14:31;;;;;;;0.67;0.27;;;;;;;20.07;63.88;96847.19;10397072;28;20112;-21
2022/07/02 20:19:32;;;;;;;0.57;0.30;;;;;;;20.15;63.63;96855.63;10383546;28;20053;-22
2022/07/02 20:24:33;;;;;;;0.30;0.30;;;;;;;20.30;64.52;96878.44;10396840;28;20121;-19
2022/07/02 20:29:33;;;;;;;1.13;0.73;;;;;;;20.48;65.60;96876.66;10400706;28;20021;-23
2022/07/02 20:34:34;;;;;;;0.30;0.30;;;;;;;20.47;63.41;96880.91;10394713;28;20044;-21
2022/07/02 20:39:34;;;;;;;0.27;0.20;;;;;;;20.35;64.19;96885.19;10398997;28;20025;-21
2022/07/02 20:44:34;;;;;;;0.30;0.30;;;;;;;20.29;63.75;96886.94;10396795;28;20026;-22
2022/07/02 20:49:35;;;;;;;0.50;0.40;;;;;;;20.24;63.92;96886.09;10399524;28;20272;-22
2022/07/02 20:54:35;;;;;;;0.52;0.40;;;;;;;20.22;63.93;96890.34;10397117;28;20021;-20
2022/07/02 20:59:36;;;;;;;0.40;0.30;;;;;;;20.20;64.00;96889.53;10398062;28;20028;-21
2022/07/02 21:04:36;;;;;;;0.30;0.30;;;;;;;20.19;63.67;96893.75;10397382;28;20025;-21
2022/07/02 21:09:37;;;;;;;0.53;0.40;;;;;;;20.22;63.88;96905.59;10400248;28;20619;-21
2022/07/02 21:14:38;;;;;;;0.40;0.40;;;;;;;20.21;63.80;96901.38;10400379;28;20036;-22
2022/07/02 21:19:38;;;;;;;0.70;0.50;;;;;;;20.32;64.72;96904.72;10394709;28;20393;-22
2022/07/02 21:24:39;;;;;;;0.45;0.45;;;;;;;20.48;65.52;96897.03;10398729;28;20033;-24
2022/07/02 21:29:39;;;;;;;0.55;0.43;;;;;;;20.51;63.57;96895.31;10393653;28;20388;-22
2022/07/02 21:34:39;;;;;;;0.40;0.40;;;;;;;20.38;64.10;96889.44;10393349;28;20538;-21
2022/07/02 21:39:40;;;;;;;0.83;0.43;;;;;;;20.31;64.01;96903.03;10400600;28;20472;-21
2022/07/02 21:44:40;;;;;;;0.52;0.22;;;;;;;20.26;63.64;96907.31;10403974;28;20034;-20
2022/07/02 21:49:41;;;;;;;1.23;0.30;;;;;;;20.22;63.95;96903.06;10398080;28;20468;-20
2022/07/02 21:54:41;;;;;;;0.60;0.30;;;;;;;20.22;63.86;96908.16;10394102;28;20535;-20
2022/07/02 21:59:42;;;;;;;0.47;0.47;;;;;;;20.21;63.82;96911.53;10395373;28;20303;-21
2022/07/02 22:04:42;;;;;;;0.57;0.40;;;;;;;20.20;63.66;96912.41;10395655;28;20037;-20
2022/07/02 22:09:43;;;;;;;2.58;0.40;;;;;;;20.22;63.73;96919.19;10392284;28;20029;-21
2022/07/02 22:14:43;;;;;;;0.93;0.47;;;;;;;20.32;64.74;96917.44;10388487;28;20104;-21
2022/07/02 22:19:43;;;;;;;0.70;0.50;;;;;;;20.51;65.67;96915.66;10394340;28;20026;-21
2022/07/02 22:24:44;;;;;;;0.93;0.43;;;;;;;20.47;63.98;96921.59;10396575;28;20030;-21
2022/07/02 22:29:44;;;;;;;0.30;0.30;;;;;;;20.34;63.75;96931.00;10386900;28;20025;-20
2022/07/02 22:34:44;;;;;;;0.17;0.13;;;;;;;20.31;63.86;96923.38;10391256;28;20045;-21
2022/07/02 22:39:45;;;;;;;0.23;0.20;;;;;;;20.31;63.94;96923.38;10392533;28;20034;-20
2022/07/02 22:44:45;;;;;;;0.37;0.37;;;;;;;20.28;63.90;96924.22;10397060;28;20038;-21
2022/07/02 22:49:45;;;;;;;0.40;0.20;;;;;;;20.25;64.06;96918.31;10396510;28;20095;-22
2022/07/02 22:54:46;;;;;;;0.30;0.30;;;;;;;20.27;63.97;96916.63;10392262;28;20042;-21
2022/07/02 22:59:46;;;;;;;0.40;0.30;;;;;;;20.26;64.04;96931.00;10389277;28;20292;-21
2022/07/02 23:04:47;;;;;;;0.20;0.20;;;;;;;20.27;63.89;96934.41;10393757;28;20022;-21
2022/07/02 23:09:47;;;;;;;0.63;0.40;;;;;;;20.41;64.22;96936.03;10389942;28;20580;-20
2022/07/02 23:14:47;;;;;;;0.63;0.53;;;;;;;20.55;65.65;96937.66;10390101;28;20849;-21
2022/07/02 23:19:48;;;;;;;0.30;0.30;;;;;;;20.44;63.47;96936.88;10392813;28;20296;-21
2022/07/02 23:24:48;;;;;;;0.33;0.30;;;;;;;20.35;63.87;96936.06;10384893;28;20038;-21